»·PEaware :: N921VN KASE-KASE

N921VN :: KASE-KASE

FLIGHT INFORMATION

Flight Status: Arrived
Operator: Privately registered:
United States
More flights under this callsign
Pilot: Kevin M. (7)
Aircraft: BEECH AIRCRAFT BARON
(BE58)
More flights by this aircraft type
Origin: KASE Aspen-Pitkin Co/Sardy
United States
Destination: KASE Aspen-Pitkin Co/Sardy
United States
More flights between these airports :: More routes between these airports
Route: SARDD3 LINDZ DBL
File this flight plan on PilotEdge
Remarks: Request multiple approaches. LOC / DME-E from DBL, missed approach, then VOR / DME-C from DBL
Altitude:
(Current/Filed)
16,000ft
Speed:
(Current/Filed)
150kts
Departed: 07-Jan-20 01:32 PM
Arrived: 07-Jan-20 02:36 PM
Distance/Time
Traveled:
0nm/1:04
Distance/Time
To Go:
Arrived

Flight Plot

Page will automatically refresh every two minutes.

Flight plan parsing failed; only flown route is shown


Map Options




Map Legend


Flown Route
Filed Route
Departure Airport
Arrival Airport
Navaid (VOR, NDB)
Fix

Horizontal Profiles

Position Reports

Time Latitude Longitude Heading Altitude Ground
Speed
07-Jan-20 13:15 39.224173 -106.867289 157 7726ft 0kts
07-Jan-20 13:16 39.224173 -106.867289 157 7726ft 0kts
07-Jan-20 13:17 39.224173 -106.867289 157 7726ft 0kts
07-Jan-20 13:18 39.224173 -106.867289 157 7726ft 0kts
07-Jan-20 13:19 39.224139 -106.867275 170 7726ft 1kts
07-Jan-20 13:20 39.224085 -106.867299 211 7727ft 0kts
07-Jan-20 13:21 39.224051 -106.867326 211 7727ft 1kts
07-Jan-20 13:22 39.220512 -106.866189 160 7763ft 19kts
07-Jan-20 13:23 39.217983 -106.865008 154 7786ft 0kts
07-Jan-20 13:24 39.216484 -106.864220 154 7799ft 15kts
07-Jan-20 13:25 39.212439 -106.862562 241 7816ft 0kts
07-Jan-20 13:26 39.212438 -106.862564 241 7816ft 0kts
07-Jan-20 13:27 39.212438 -106.862564 241 7816ft 0kts
07-Jan-20 13:28 39.212438 -106.862564 241 7816ft 0kts
07-Jan-20 13:29 39.212438 -106.862564 241 7816ft 0kts
07-Jan-20 13:30 39.212326 -106.862900 254 7818ft 11kts
07-Jan-20 13:31 39.220451 -106.867380 339 7764ft 109kts
07-Jan-20 13:32 39.254237 -106.878132 351 8987ft 130kts
07-Jan-20 13:33 39.274570 -106.907946 283 10217ft 132kts
07-Jan-20 13:34 39.284059 -106.955779 282 11049ft 148kts
07-Jan-20 13:35 39.295046 -107.009383 282 11562ft 157kts
07-Jan-20 13:36 39.318538 -107.057514 306 12061ft 164kts
07-Jan-20 13:37 39.348982 -107.101551 306 12556ft 164kts
07-Jan-20 13:38 39.379236 -107.145310 305 13050ft 162kts
07-Jan-20 13:39 39.380670 -107.193330 253 13644ft 142kts
07-Jan-20 13:40 39.375621 -107.241693 298 14322ft 148kts
07-Jan-20 13:41 39.402174 -107.216624 118 14670ft 173kts
07-Jan-20 13:42 39.385275 -107.164037 73 15401ft 171kts
07-Jan-20 13:43 39.416480 -107.160757 276 15825ft 141kts
07-Jan-20 13:44 39.409290 -107.209713 253 16051ft 150kts
07-Jan-20 13:45 39.379023 -107.221456 116 15917ft 196kts
07-Jan-20 13:46 39.393710 -107.153864 45 16004ft 199kts
07-Jan-20 13:47 39.426323 -107.170945 255 15996ft 156kts
07-Jan-20 13:48 39.414759 -107.225042 250 15997ft 159kts
07-Jan-20 13:50 39.382107 -107.220175 109 15961ft 196kts
07-Jan-20 13:51 39.396128 -107.152581 44 16107ft 196kts
07-Jan-20 13:52 39.424679 -107.174146 254 16016ft 157kts
07-Jan-20 13:53 39.411733 -107.228598 241 16025ft 155kts
07-Jan-20 13:54 39.383533 -107.204368 76 16132ft 194kts
07-Jan-20 13:55 39.401985 -107.138842 49 16078ft 203kts
07-Jan-20 13:56 39.438052 -107.081923 49 16049ft 200kts
07-Jan-20 13:57 39.474427 -107.024584 49 15691ft 216kts
07-Jan-20 13:58 39.513180 -106.963467 49 15001ft 221kts
07-Jan-20 13:59 39.550474 -106.900828 75 14297ft 220kts
07-Jan-20 14:00 39.512937 -106.859966 169 14051ft 188kts
07-Jan-20 14:01 39.467176 -106.877804 213 14055ft 173kts
07-Jan-20 14:02 39.431490 -106.917681 225 14082ft 168kts
07-Jan-20 14:03 39.410432 -106.967716 178 14110ft 171kts
07-Jan-20 14:04 39.365669 -106.938251 171 13083ft 162kts
07-Jan-20 14:05 39.332644 -106.918824 176 11753ft 119kts
07-Jan-20 14:06 39.294610 -106.903701 154 10557ft 154kts
07-Jan-20 14:07 39.260955 -106.898184 246 10992ft 122kts
07-Jan-20 14:08 39.283736 -106.917660 311 12058ft 131kts
07-Jan-20 14:09 39.302643 -106.959689 314 12832ft 143kts
07-Jan-20 14:09 39.336417 -106.949104 20 13283ft 171kts
07-Jan-20 14:11 39.378809 -106.946975 279 14216ft 133kts
07-Jan-20 14:12 39.396739 -106.998941 292 14124ft 165kts
07-Jan-20 14:12 39.413075 -107.045475 289 14020ft 172kts
07-Jan-20 14:14 39.458531 -107.033660 54 13957ft 203kts
07-Jan-20 14:14 39.451139 -106.984640 133 14004ft 184kts
07-Jan-20 14:15 39.406286 -106.954769 180 13578ft 190kts
07-Jan-20 14:16 39.355897 -106.930202 159 13010ft 201kts
07-Jan-20 14:17 39.303032 -106.907839 159 11393ft 184kts
07-Jan-20 14:19 39.256189 -106.896864 224 10705ft 150kts
07-Jan-20 14:19 39.252429 -106.941414 300 10827ft 169kts
07-Jan-20 14:20 39.278365 -106.987660 307 11675ft 152kts
07-Jan-20 14:21 39.307848 -107.024900 321 12657ft 149kts
07-Jan-20 14:22 39.330962 -107.064610 299 13648ft 136kts
07-Jan-20 14:23 39.354049 -107.106323 298 14045ft 163kts
07-Jan-20 14:24 39.393322 -107.126449 42 13966ft 202kts
07-Jan-20 14:25 39.430395 -107.071150 48 13957ft 204kts
07-Jan-20 14:26 39.467706 -107.014370 48 13964ft 208kts
07-Jan-20 14:27 39.504965 -106.957016 48 13968ft 208kts
07-Jan-20 14:28 39.545704 -106.907054 6 13828ft 203kts
07-Jan-20 14:29 39.596627 -106.908330 349 13838ft 171kts
07-Jan-20 14:30 39.599161 -106.941267 180 13664ft 154kts
07-Jan-20 14:31 39.560043 -106.907682 171 13848ft 176kts
07-Jan-20 14:32 39.509799 -106.900854 187 13780ft 181kts
07-Jan-20 14:33 39.460740 -106.897131 176 13415ft 128kts
07-Jan-20 14:34 39.431675 -106.873459 47 11444ft 43kts
07-Jan-20 14:35 39.224166 -106.867285 157 7726ft 0kts

Navigation Log

Ident Type
Flight plan parsing failed, navigation log unavailable